createdAt,value
2019-06-20T00:00:50.237Z,57.94
2019-06-20T00:03:25.901Z,58.18
2019-06-20T00:05:59.281Z,58.18
2019-06-20T00:08:32.655Z,58.30
2019-06-20T00:11:08.003Z,58.60
2019-06-20T00:13:42.433Z,58.67
2019-06-20T00:16:16.893Z,58.57
2019-06-20T00:18:50.426Z,58.10
2019-06-20T00:21:27.030Z,58.03
2019-06-20T00:24:02.692Z,57.91
2019-06-20T00:26:38.581Z,57.94
2019-06-20T00:29:14.688Z,57.92
2019-06-20T00:31:48.169Z,58.20
2019-06-20T00:34:21.905Z,58.17
2019-06-20T00:36:55.357Z,59.40
2019-06-20T00:39:28.789Z,58.91
2019-06-20T00:42:02.244Z,59.15
2019-06-20T00:44:35.586Z,59.20
2019-06-20T00:47:10.003Z,59.72
2019-06-20T00:49:45.974Z,60.50
2019-06-20T00:52:21.641Z,59.93
2019-06-20T00:54:56.736Z,59.51
2019-06-20T00:57:30.283Z,58.88
2019-06-20T01:00:06.936Z,59.13
2019-06-20T01:02:44.322Z,59.85
2019-06-20T01:05:17.799Z,60.46
2019-06-20T01:07:58.518Z,60.75
2019-06-20T01:10:29.663Z,61.20
2019-06-20T01:13:04.611Z,60.93
2019-06-20T01:15:41.088Z,60.94
2019-06-20T01:18:14.355Z,61.00
2019-06-20T01:20:50.167Z,61.03
2019-06-20T01:23:28.430Z,60.18
2019-06-20T01:26:08.902Z,60.10
2019-06-20T01:28:44.923Z,60.00
2019-06-20T01:31:18.437Z,60.59
2019-06-20T01:33:51.752Z,61.23
2019-06-20T01:36:25.138Z,62.13
2019-06-20T01:38:58.355Z,62.79
2019-06-20T01:41:31.696Z,63.06
2019-06-20T01:44:05.113Z,63.30
2019-06-20T01:46:38.418Z,63.59
2019-06-20T01:49:12.098Z,63.69
2019-06-20T01:51:45.490Z,63.79
2019-06-20T01:54:18.777Z,63.53
2019-06-20T01:56:52.146Z,64.03
2019-06-20T01:59:25.464Z,63.36
2019-06-20T02:01:58.886Z,63.12
2019-06-20T02:04:32.238Z,62.80
2019-06-20T02:07:06.641Z,62.50
2019-06-20T02:09:40.072Z,62.44
2019-06-20T02:12:13.435Z,62.34
2019-06-20T02:14:46.818Z,62.38
2019-06-20T02:17:20.765Z,62.52
2019-06-20T02:19:54.333Z,62.49
2019-06-20T02:22:27.711Z,62.22
2019-06-20T02:25:00.981Z,61.60
2019-06-20T02:27:34.201Z,62.26
2019-06-20T02:30:07.868Z,63.29
2019-06-20T02:32:43.350Z,63.07
2019-06-20T02:35:19.939Z,63.32
2019-06-20T02:37:55.910Z,63.11
2019-06-20T02:40:31.538Z,62.88
2019-06-20T02:43:06.352Z,63.04
2019-06-20T02:45:40.459Z,62.71
2019-06-20T02:48:16.587Z,62.70
2019-06-20T02:50:53.581Z,62.66
2019-06-20T02:53:28.206Z,62.68
2019-06-20T02:56:02.132Z,62.56
2019-06-20T02:58:39.988Z,62.52
2019-06-20T03:01:16.830Z,62.74
2019-06-20T03:03:54.301Z,63.20
2019-06-20T03:06:41.566Z,62.85
2019-06-20T03:09:07.519Z,63.23
2019-06-20T03:11:43.156Z,63.74
2019-06-20T03:14:18.620Z,63.91
2019-06-20T03:16:58.512Z,64.29
2019-06-20T03:19:32.021Z,64.13
2019-06-20T03:22:06.062Z,64.71
2019-06-20T03:24:42.598Z,64.75
2019-06-20T03:27:17.642Z,64.69
2019-06-20T03:29:52.714Z,64.20
2019-06-20T03:32:29.181Z,64.26
2019-06-20T03:35:02.810Z,64.37
2019-06-20T03:37:40.482Z,64.54
2019-06-20T03:40:16.642Z,64.47
2019-06-20T03:42:50.533Z,64.21
2019-06-20T03:45:33.264Z,63.76
2019-06-20T03:48:07.992Z,63.40
2019-06-20T03:50:44.694Z,63.42
2019-06-20T03:53:21.383Z,63.37
2019-06-20T03:55:56.595Z,63.56
2019-06-20T03:58:35.958Z,63.56
2019-06-20T04:01:09.592Z,64.09
2019-06-20T04:03:44.003Z,63.49
2019-06-20T04:06:36.014Z,64.03
2019-06-20T04:09:02.127Z,63.94
2019-06-20T04:11:38.679Z,63.51
2019-06-20T04:14:13.779Z,63.58
2019-06-20T04:16:49.487Z,63.51
2019-06-20T04:19:24.350Z,63.30
2019-06-20T04:22:04.447Z,63.56
2019-06-20T04:24:41.873Z,63.41
2019-06-20T04:27:16.423Z,62.42
2019-06-20T04:29:55.192Z,62.18
2019-06-20T04:32:30.702Z,62.01
2019-06-20T04:35:06.003Z,62.24
2019-06-20T04:37:39.616Z,62.14
2019-06-20T04:40:14.768Z,61.78
2019-06-20T04:42:50.959Z,62.12
2019-06-20T04:45:58.896Z,62.06
2019-06-20T04:48:33.260Z,61.48
2019-06-20T04:51:10.456Z,60.73
2019-06-20T04:53:43.793Z,60.51
2019-06-20T04:56:17.229Z,59.74
2019-06-20T04:58:50.664Z,59.41
2019-06-20T05:01:24.004Z,59.23
2019-06-20T05:03:58.205Z,58.84
2019-06-20T05:06:31.799Z,58.91
2019-06-20T05:09:06.988Z,58.72
2019-06-20T05:11:40.419Z,58.18
2019-06-20T05:14:13.717Z,57.81
2019-06-20T05:16:51.561Z,56.51
2019-06-20T05:19:25.247Z,56.38
2019-06-20T05:21:58.656Z,54.80
2019-06-20T05:24:32.138Z,54.12
2019-06-20T05:27:05.658Z,52.25
2019-06-20T05:29:40.109Z,53.01
2019-06-20T05:32:21.982Z,51.83
2019-06-20T05:35:08.615Z,51.49
2019-06-20T05:37:42.242Z,51.10
2019-06-20T05:40:16.626Z,49.43
2019-06-20T05:42:50.770Z,49.43
2019-06-20T05:45:24.215Z,49.34
2019-06-20T05:47:57.885Z,47.45
2019-06-20T05:50:33.621Z,48.33
2019-06-20T05:53:08.564Z,47.47
2019-06-20T05:55:42.036Z,48.03
2019-06-20T05:58:19.684Z,46.79
2019-06-20T06:00:53.729Z,46.95
2019-06-20T06:03:29.083Z,46.80
2019-06-20T06:06:05.707Z,47.11
2019-06-20T06:08:42.766Z,46.96
2019-06-20T06:11:16.958Z,45.53
2019-06-20T06:13:53.539Z,46.08
2019-06-20T06:16:31.465Z,45.65
2019-06-20T06:19:06.923Z,45.38
2019-06-20T06:21:41.985Z,45.93
2019-06-20T06:24:21.180Z,45.51
2019-06-20T06:26:53.733Z,44.62
2019-06-20T06:29:33.147Z,44.18
2019-06-20T06:32:09.096Z,44.29
2019-06-20T06:34:45.710Z,44.27
2019-06-20T06:37:19.158Z,44.70
2019-06-20T06:39:55.050Z,44.12
2019-06-20T06:42:29.699Z,43.99
2019-06-20T06:45:03.141Z,44.12
2019-06-20T06:47:46.981Z,42.43
2019-06-20T06:50:26.220Z,42.22
2019-06-20T06:53:01.310Z,41.86
2019-06-20T06:55:35.602Z,42.10
2019-06-20T06:58:09.035Z,41.38
2019-06-20T07:00:45.386Z,41.02
2019-06-20T07:03:19.737Z,41.60
2019-06-20T07:05:57.427Z,40.77
2019-06-20T07:08:32.280Z,40.67
2019-06-20T07:11:06.345Z,40.59
2019-06-20T07:13:44.411Z,39.47
2019-06-20T07:16:18.509Z,39.59
2019-06-20T07:19:01.108Z,39.25
2019-06-20T07:21:34.761Z,39.86
2019-06-20T07:24:09.806Z,39.61
2019-06-20T07:26:44.795Z,39.38
2019-06-20T07:29:18.358Z,39.95
2019-06-20T07:31:53.700Z,39.83
2019-06-20T07:34:40.768Z,39.66
2019-06-20T07:37:10.840Z,38.74
2019-06-20T07:39:53.441Z,39.21
2019-06-20T07:42:33.303Z,39.20
2019-06-20T07:45:11.801Z,38.45
2019-06-20T07:47:55.078Z,37.94
2019-06-20T08:01:35.348Z,36.64
2019-06-20T08:04:09.064Z,35.89
2019-06-20T08:06:43.455Z,36.04
2019-06-20T08:09:16.828Z,35.66
2019-06-20T08:11:50.393Z,35.75
2019-06-20T08:14:23.935Z,35.91
2019-06-20T08:16:58.397Z,36.91
2019-06-20T08:19:32.514Z,36.40
2019-06-20T08:22:09.947Z,34.86
2019-06-20T08:24:44.548Z,35.46
2019-06-20T08:27:19.546Z,36.36
2019-06-20T08:29:52.829Z,34.21
2019-06-20T08:32:26.209Z,34.19
2019-06-20T08:35:00.545Z,34.58
2019-06-20T08:37:34.219Z,35.64
2019-06-20T08:40:08.486Z,34.77
2019-06-20T08:42:42.477Z,34.43
2019-06-20T08:45:17.656Z,34.59
2019-06-20T08:47:50.979Z,34.19
2019-06-20T08:50:24.707Z,32.91
2019-06-20T08:52:58.504Z,33.40
2019-06-20T08:55:32.917Z,33.08
2019-06-20T08:58:06.369Z,33.77
2019-06-20T09:00:41.324Z,31.84
2019-06-20T09:03:14.759Z,31.10
2019-06-20T09:05:48.025Z,31.65
2019-06-20T09:08:21.630Z,31.00
2019-06-20T09:10:55.705Z,30.86
2019-06-20T09:13:29.036Z,30.40
2019-06-20T09:16:03.055Z,30.36
2019-06-20T09:18:36.444Z,29.07
2019-06-20T09:21:09.612Z,29.91
2019-06-20T09:23:43.023Z,30.15
2019-06-20T09:26:16.371Z,29.97
2019-06-20T09:28:51.019Z,30.06
2019-06-20T09:31:24.505Z,30.50
2019-06-20T09:34:03.710Z,28.51
2019-06-20T09:36:35.539Z,29.93
2019-06-20T09:39:09.844Z,30.02
2019-06-20T09:41:43.129Z,29.56
2019-06-20T09:44:16.615Z,29.73
2019-06-20T09:46:51.187Z,30.26
2019-06-20T09:49:25.033Z,30.28
2019-06-20T09:51:58.705Z,31.19
2019-06-20T09:54:32.488Z,31.08
2019-06-20T09:57:06.007Z,29.55
2019-06-20T09:59:40.797Z,30.17
2019-06-20T10:02:14.205Z,31.00
2019-06-20T10:04:49.158Z,32.24
2019-06-20T10:07:22.544Z,31.25
2019-06-20T10:09:56.961Z,31.31
2019-06-20T10:12:30.327Z,30.48
2019-06-20T10:15:03.605Z,31.82
2019-06-20T10:17:36.978Z,30.89
2019-06-20T10:20:11.020Z,30.75
2019-06-20T10:22:45.879Z,31.43
2019-06-20T10:25:23.285Z,30.17
2019-06-20T10:27:57.906Z,29.82
2019-06-20T10:30:31.770Z,30.06
2019-06-20T10:33:05.642Z,29.24
2019-06-20T10:35:39.052Z,30.01
2019-06-20T10:38:12.387Z,29.49
2019-06-20T10:40:46.359Z,30.69
2019-06-20T10:43:20.113Z,30.82
2019-06-20T10:45:53.552Z,30.74
2019-06-20T10:48:26.959Z,30.38
2019-06-20T10:51:19.037Z,30.61
2019-06-20T10:53:53.414Z,30.69
2019-06-20T10:56:26.836Z,31.70
2019-06-20T10:59:00.347Z,31.09
2019-06-20T11:01:35.055Z,30.65
2019-06-20T11:04:10.550Z,28.72
2019-06-20T11:06:47.612Z,29.80
2019-06-20T11:09:24.057Z,29.18
2019-06-20T11:11:58.325Z,28.81
2019-06-20T11:14:34.270Z,28.86
2019-06-20T11:17:07.898Z,28.67
2019-06-20T11:19:41.575Z,28.38
2019-06-20T11:22:15.260Z,28.60
2019-06-20T11:24:50.168Z,28.68
2019-06-20T11:27:24.396Z,29.20
2019-06-20T11:29:57.911Z,28.88
2019-06-20T11:32:31.348Z,29.67
2019-06-20T11:35:05.656Z,29.62
2019-06-20T11:37:39.679Z,29.35
2019-06-20T11:40:16.010Z,29.18
2019-06-20T11:42:49.712Z,28.99
2019-06-20T11:45:24.576Z,29.25
2019-06-20T11:47:59.233Z,29.54
2019-06-20T11:50:35.011Z,27.78
2019-06-20T11:53:09.082Z,28.10
2019-06-20T11:55:42.917Z,28.64
2019-06-20T11:58:16.641Z,28.95
2019-06-20T12:01:03.041Z,29.26
2019-06-20T12:03:26.198Z,29.26
2019-06-20T12:05:59.677Z,29.22
2019-06-20T12:08:34.547Z,29.39
2019-06-20T12:11:08.226Z,29.21
2019-06-20T12:13:42.102Z,28.87
2019-06-20T12:16:15.508Z,28.71
2019-06-20T12:18:49.443Z,28.30
2019-06-20T12:21:22.930Z,28.51
2019-06-20T12:23:56.469Z,29.01
2019-06-20T12:26:29.972Z,29.42
2019-06-20T12:29:03.402Z,29.67
2019-06-20T12:31:36.881Z,30.46
2019-06-20T12:34:10.582Z,30.54
2019-06-20T12:36:44.426Z,30.99
2019-06-20T12:39:17.730Z,31.08
2019-06-20T12:41:51.035Z,31.23
2019-06-20T12:44:26.259Z,30.68
2019-06-20T12:46:59.729Z,30.86
2019-06-20T12:49:33.580Z,30.52
2019-06-20T12:52:06.926Z,29.89
2019-06-20T12:54:43.232Z,29.69
2019-06-20T12:57:16.821Z,29.68
2019-06-20T12:59:50.061Z,29.92
2019-06-20T13:02:23.411Z,29.88
2019-06-20T13:04:57.021Z,29.86
2019-06-20T13:07:30.779Z,29.21
2019-06-20T13:10:04.118Z,29.75
2019-06-20T13:12:40.707Z,29.28
2019-06-20T13:15:13.935Z,29.55
2019-06-20T13:17:48.889Z,29.79
2019-06-20T13:20:23.777Z,29.85
2019-06-20T13:22:58.052Z,30.21
2019-06-20T13:25:35.013Z,30.05
2019-06-20T13:28:10.998Z,29.88
2019-06-20T13:30:48.611Z,29.10
2019-06-20T13:33:19.892Z,29.31
2019-06-20T13:35:55.659Z,28.71
2019-06-20T13:38:29.876Z,28.57
2019-06-20T13:41:06.147Z,27.57
2019-06-20T13:43:39.387Z,27.90
2019-06-20T13:46:12.617Z,28.42
2019-06-20T13:48:47.492Z,28.57
2019-06-20T13:51:20.770Z,28.84
2019-06-20T13:53:53.886Z,29.62
2019-06-20T13:56:27.068Z,29.51
2019-06-20T13:59:01.365Z,29.38
2019-06-20T14:01:34.524Z,28.94
2019-06-20T14:04:07.876Z,29.28
2019-06-20T14:06:42.096Z,29.42
2019-06-20T14:09:16.685Z,29.62
2019-06-20T14:11:51.440Z,29.59
2019-06-20T14:14:24.627Z,30.02
2019-06-20T14:16:58.634Z,29.86
2019-06-20T14:19:31.785Z,30.43
2019-06-20T14:22:06.220Z,30.38
2019-06-20T14:24:39.277Z,30.77
2019-06-20T14:27:12.359Z,31.13
2019-06-20T14:29:46.528Z,31.46
2019-06-20T14:32:22.352Z,31.27
2019-06-20T14:34:54.428Z,30.97
2019-06-20T14:37:27.534Z,31.23
2019-06-20T14:40:00.760Z,31.22
2019-06-20T14:42:34.021Z,31.23
2019-06-20T14:45:07.628Z,32.01
2019-06-20T14:47:40.791Z,32.01
2019-06-20T14:50:15.531Z,32.77
2019-06-20T14:52:50.012Z,35.82
2019-06-20T14:55:29.870Z,40.88
2019-06-20T14:58:03.337Z,41.86
2019-06-20T15:00:36.593Z,45.08
2019-06-20T15:03:09.825Z,45.33
2019-06-20T15:05:44.775Z,48.38
2019-06-20T15:08:18.419Z,53.73
2019-06-20T15:10:51.925Z,54.03
2019-06-20T15:13:26.199Z,54.41
2019-06-20T15:15:59.438Z,55.42
2019-06-20T15:18:32.877Z,53.64
2019-06-20T15:21:06.195Z,55.61
2019-06-20T15:23:39.369Z,56.46
2019-06-20T15:26:12.642Z,56.58
2019-06-20T15:28:47.650Z,55.82
2019-06-20T15:31:21.048Z,55.81
2019-06-20T15:33:55.146Z,56.67
2019-06-20T15:36:28.765Z,56.78
2019-06-20T15:39:01.998Z,58.93
2019-06-20T15:41:36.823Z,58.69
2019-06-20T15:44:10.149Z,58.61
2019-06-20T15:46:43.372Z,57.80
2019-06-20T15:49:16.714Z,55.50
2019-06-20T15:51:49.952Z,55.42
2019-06-20T15:54:24.553Z,53.30
2019-06-20T15:56:57.830Z,55.57
2019-06-20T15:59:31.060Z,54.50
2019-06-20T16:02:04.258Z,54.32
2019-06-20T16:04:37.564Z,54.58
2019-06-20T16:07:11.811Z,55.94
2019-06-20T16:09:45.070Z,55.37
2019-06-20T16:12:18.296Z,58.26
2019-06-20T16:14:51.573Z,56.24
2019-06-20T16:17:24.769Z,54.74
2019-06-20T16:19:57.992Z,54.53
2019-06-20T16:22:31.118Z,54.99
2019-06-20T16:25:04.456Z,55.32
2019-06-20T16:27:37.741Z,54.47
2019-06-20T16:30:11.921Z,53.81
2019-06-20T16:32:45.225Z,55.17
2019-06-20T16:35:19.797Z,58.95
2019-06-20T16:37:53.022Z,58.58
2019-06-20T16:40:44.204Z,59.76
2019-06-20T16:43:17.525Z,59.65
2019-06-20T16:45:50.610Z,59.01
2019-06-20T16:48:23.807Z,58.53
2019-06-20T16:50:56.998Z,58.88
2019-06-20T16:53:30.230Z,59.06
2019-06-20T16:56:03.426Z,58.44
2019-06-20T16:58:36.518Z,57.95
2019-06-20T17:01:09.768Z,57.30
2019-06-20T17:03:42.918Z,55.74
2019-06-20T17:06:16.080Z,54.42
2019-06-20T17:08:50.285Z,54.46
2019-06-20T17:11:23.535Z,54.17
2019-06-20T17:13:56.818Z,53.61
2019-06-20T17:16:29.977Z,54.37
2019-06-20T17:19:03.122Z,53.94
2019-06-20T17:21:37.386Z,51.17
2019-06-20T17:24:10.730Z,50.81
2019-06-20T17:26:43.890Z,50.78
2019-06-20T17:29:17.115Z,51.15
2019-06-20T17:31:50.350Z,51.67
2019-06-20T17:34:23.489Z,50.18
2019-06-20T17:36:56.816Z,50.25
2019-06-20T17:39:29.925Z,48.70
2019-06-20T17:42:03.159Z,47.57
2019-06-20T17:44:36.242Z,47.45
2019-06-20T17:47:09.347Z,46.32
2019-06-20T17:49:42.591Z,46.06
2019-06-20T17:52:15.708Z,45.82
2019-06-20T17:54:48.881Z,46.44
2019-06-20T17:57:22.047Z,45.67
2019-06-20T17:59:55.336Z,45.74
2019-06-20T18:02:28.541Z,46.81
2019-06-20T18:05:03.397Z,46.79
2019-06-20T18:07:36.572Z,46.34
2019-06-20T18:10:10.490Z,45.77
2019-06-20T18:12:43.626Z,45.29
2019-06-20T18:15:17.357Z,46.79
2019-06-20T18:17:50.671Z,47.54
2019-06-20T18:20:25.119Z,47.62
2019-06-20T18:22:58.402Z,46.06
2019-06-20T18:25:31.887Z,45.76
2019-06-20T18:28:05.189Z,44.45
2019-06-20T18:30:44.527Z,45.03
2019-06-20T18:33:17.750Z,45.18
2019-06-20T18:35:51.023Z,45.12
2019-06-20T18:38:24.217Z,46.59
2019-06-20T18:40:58.461Z,48.29
2019-06-20T18:43:31.732Z,50.34
2019-06-20T18:46:04.839Z,51.50
2019-06-20T18:48:37.983Z,50.60
2019-06-20T18:51:11.047Z,49.79
2019-06-20T18:53:44.180Z,49.85
2019-06-20T18:56:17.336Z,50.11
2019-06-20T18:58:50.498Z,50.38
2019-06-20T19:01:23.773Z,50.54
2019-06-20T19:03:57.035Z,50.61
2019-06-20T19:06:35.879Z,51.10
2019-06-20T19:09:08.591Z,51.42
2019-06-20T19:11:42.824Z,51.96
2019-06-20T19:14:16.011Z,52.24
2019-06-20T19:16:49.286Z,51.85
2019-06-20T19:19:22.490Z,52.50
2019-06-20T19:21:55.616Z,53.41
2019-06-20T19:24:28.837Z,53.48
2019-06-20T19:27:01.998Z,53.30
2019-06-20T19:29:35.201Z,53.22
2019-06-20T19:32:09.354Z,53.83
2019-06-20T19:34:43.039Z,54.28
2019-06-20T19:37:16.737Z,54.67
2019-06-20T19:39:52.957Z,54.52
2019-06-20T19:42:28.117Z,54.47
2019-06-20T19:45:04.371Z,54.66
2019-06-20T19:47:37.610Z,54.97
2019-06-20T19:50:11.613Z,55.21
2019-06-20T19:52:44.923Z,55.49
2019-06-20T19:55:18.865Z,55.62
2019-06-20T19:57:51.950Z,55.94
2019-06-20T20:00:25.451Z,56.25
2019-06-20T20:02:59.796Z,56.35
2019-06-20T20:05:33.053Z,57.40
2019-06-20T20:08:06.657Z,57.62
2019-06-20T20:10:46.109Z,57.43
2019-06-20T20:13:19.609Z,58.44
2019-06-20T20:15:52.793Z,58.70
2019-06-20T20:18:28.656Z,58.91
2019-06-20T20:21:03.192Z,60.29
2019-06-20T20:23:36.601Z,60.52
2019-06-20T20:26:09.785Z,60.24
2019-06-20T20:28:43.629Z,59.87
2019-06-20T20:31:16.963Z,60.36
2019-06-20T20:34:19.931Z,60.08
2019-06-20T20:36:54.848Z,60.60
2019-06-20T20:39:29.602Z,60.73
2019-06-20T20:42:03.028Z,61.16
2019-06-20T20:44:37.467Z,61.26
2019-06-20T20:47:10.956Z,61.10
2019-06-20T20:49:44.470Z,60.91
2019-06-20T20:52:18.882Z,60.85
2019-06-20T20:54:54.767Z,60.60
2019-06-20T20:57:33.011Z,60.39
2019-06-20T21:00:09.028Z,60.71
2019-06-20T21:02:43.142Z,60.86
2019-06-20T21:05:16.473Z,61.38
2019-06-20T21:07:49.925Z,61.19
2019-06-20T21:10:24.874Z,61.52
2019-06-20T21:12:58.076Z,62.67
2019-06-20T21:15:31.568Z,62.60
2019-06-20T21:18:04.920Z,62.55
2019-06-20T21:20:38.104Z,62.50
2019-06-20T21:23:11.596Z,62.53
2019-06-20T21:25:44.843Z,63.01
2019-06-20T21:28:18.118Z,63.11
2019-06-20T21:30:51.384Z,63.40
2019-06-20T21:33:25.215Z,63.25
2019-06-20T21:36:08.431Z,63.69
2019-06-20T21:38:33.710Z,63.41
2019-06-20T21:41:07.102Z,63.46
2019-06-20T21:43:40.488Z,63.28
2019-06-20T21:46:13.694Z,63.28
2019-06-20T21:48:46.955Z,63.28
2019-06-20T21:51:20.273Z,63.54
2019-06-20T21:53:53.456Z,63.98
2019-06-20T21:56:26.600Z,64.25
2019-06-20T21:58:59.713Z,64.44
2019-06-20T22:01:33.157Z,64.44
2019-06-20T22:04:07.227Z,64.97
2019-06-20T22:06:40.462Z,65.66
2019-06-20T22:09:14.379Z,65.68
2019-06-20T22:11:47.973Z,66.12
2019-06-20T22:14:22.443Z,65.85
2019-06-20T22:16:55.595Z,66.15
2019-06-20T22:19:28.914Z,66.63
2019-06-20T22:22:02.102Z,66.65
2019-06-20T22:24:35.400Z,66.23
2019-06-20T22:27:08.618Z,66.23
2019-06-20T22:29:41.876Z,65.98
2019-06-20T22:32:15.181Z,65.67
2019-06-20T22:34:48.529Z,65.63
2019-06-20T22:37:21.726Z,65.63
2019-06-20T22:39:54.990Z,65.94
2019-06-20T22:42:28.400Z,66.30
2019-06-20T22:45:01.741Z,66.32
2019-06-20T22:47:36.066Z,66.67
2019-06-20T22:50:10.184Z,66.67
2019-06-20T22:52:43.546Z,66.85
2019-06-20T22:55:17.032Z,66.72
2019-06-20T22:57:50.349Z,67.22
2019-06-20T23:00:23.733Z,67.22
2019-06-20T23:02:57.275Z,66.95
2019-06-20T23:05:30.744Z,66.92
2019-06-20T23:08:04.337Z,67.05
2019-06-20T23:10:37.865Z,67.44
2019-06-20T23:13:11.288Z,67.62
2019-06-20T23:15:44.743Z,67.71
2019-06-20T23:18:17.982Z,67.85
2019-06-20T23:21:03.999Z,67.84
2019-06-20T23:23:26.126Z,67.69
2019-06-20T23:26:01.233Z,67.97
2019-06-20T23:28:34.501Z,68.58
2019-06-20T23:31:07.756Z,68.39
2019-06-20T23:33:40.852Z,68.66
2019-06-20T23:36:14.361Z,68.42
2019-06-20T23:38:47.527Z,68.72
2019-06-20T23:41:21.077Z,68.57
2019-06-20T23:43:54.395Z,68.51
2019-06-20T23:46:27.659Z,68.95
2019-06-20T23:49:00.998Z,69.32
2019-06-20T23:51:36.263Z,69.26
2019-06-20T23:54:09.373Z,69.12
2019-06-20T23:56:42.814Z,68.97
2019-06-20T23:59:16.043Z,69.06
